createdAt,value
2022-12-03T00:00:39.624Z,101505.03
2022-12-03T00:03:07.408Z,101516.28
2022-12-03T00:05:35.098Z,101517.16
2022-12-03T00:08:04.024Z,101511.31
2022-12-03T00:10:32.337Z,101520.66
2022-12-03T00:12:59.725Z,101522.72
2022-12-03T00:15:27.206Z,101526.91
2022-12-03T00:17:55.068Z,101523.25
2022-12-03T00:20:24.466Z,101522.84
2022-12-03T00:22:51.983Z,101535.22
2022-12-03T00:25:19.805Z,101527.28
2022-12-03T00:27:47.240Z,101531.94
2022-12-03T00:30:14.966Z,101533.03
2022-12-03T00:32:42.705Z,101537.12
2022-12-03T00:35:10.253Z,101541.19
2022-12-03T00:37:37.689Z,101545.87
2022-12-03T00:40:06.431Z,101556.41
2022-12-03T00:42:34.193Z,101563.81
2022-12-03T00:45:01.676Z,101560.53
2022-12-03T00:47:29.504Z,101554.91
2022-12-03T00:49:57.248Z,101558.16
2022-12-03T00:52:24.684Z,101551.38
2022-12-03T00:54:52.595Z,101550.12
2022-12-03T00:57:20.192Z,101545.28
2022-12-03T00:59:47.729Z,101550.09
2022-12-03T01:02:15.526Z,101548.78
2022-12-03T01:04:43.240Z,101549.56
2022-12-03T01:07:11.006Z,101560.28
2022-12-03T01:09:39.731Z,101557.81
2022-12-03T01:12:07.237Z,101558.41
2022-12-03T01:14:34.656Z,101562.84
2022-12-03T01:17:02.366Z,101570.81
2022-12-03T01:19:29.936Z,101568.28
2022-12-03T01:21:57.423Z,101559.37
2022-12-03T01:24:25.149Z,101559.37
2022-12-03T01:26:52.743Z,101561.38
2022-12-03T01:29:20.225Z,101561.16
2022-12-03T01:32:06.633Z,101563.50
2022-12-03T01:34:34.025Z,101560.38
2022-12-03T01:37:01.766Z,101558.06
2022-12-03T01:39:29.403Z,101572.50
2022-12-03T01:41:58.843Z,101564.00
2022-12-03T01:44:31.422Z,101558.75
2022-12-03T01:47:02.338Z,101558.34
2022-12-03T01:49:34.147Z,101554.31
2022-12-03T01:52:01.872Z,101554.38
2022-12-03T01:54:38.342Z,101557.44
2022-12-03T01:57:29.528Z,101556.25
2022-12-03T01:59:59.872Z,101550.94
2022-12-03T02:02:29.983Z,101549.59
2022-12-03T02:04:59.757Z,101548.22
2022-12-03T02:07:33.440Z,101548.06
2022-12-03T02:10:04.012Z,101549.91
2022-12-03T02:12:39.777Z,101553.72
2022-12-03T02:15:09.072Z,101555.28
2022-12-03T02:17:37.285Z,101547.38
2022-12-03T02:20:08.517Z,101536.88
2022-12-03T02:23:00.095Z,101540.19
2022-12-03T02:25:34.621Z,101544.09
2022-12-03T02:28:04.313Z,101548.28
2022-12-03T02:30:32.739Z,101538.37
2022-12-03T02:33:01.280Z,101540.81
2022-12-03T02:35:33.578Z,101543.56
2022-12-03T02:38:13.427Z,101538.97
2022-12-03T02:40:42.138Z,101538.09
2022-12-03T02:43:11.420Z,101548.47
2022-12-03T02:45:42.478Z,101546.84
2022-12-03T02:48:16.261Z,101550.47
2022-12-03T02:50:50.320Z,101558.06
2022-12-03T02:53:23.229Z,101550.25
2022-12-03T02:55:52.542Z,101553.53
2022-12-03T02:58:22.063Z,101554.31
2022-12-03T03:00:51.828Z,101551.66
2022-12-03T03:03:20.372Z,101558.19
2022-12-03T03:05:49.550Z,101560.94
2022-12-03T03:08:18.748Z,101555.37
2022-12-03T03:10:47.638Z,101560.94
2022-12-03T03:13:17.853Z,101554.97
2022-12-03T03:15:45.906Z,101554.09
2022-12-03T03:18:15.141Z,101549.91
2022-12-03T03:20:44.013Z,101550.56
2022-12-03T03:23:11.321Z,101543.69
2022-12-03T03:25:40.880Z,101540.72
2022-12-03T03:28:08.736Z,101550.88
2022-12-03T03:30:38.958Z,101552.97
2022-12-03T03:33:06.748Z,101546.78
2022-12-03T03:35:35.662Z,101544.06
2022-12-03T03:38:03.938Z,101559.03
2022-12-03T03:40:31.702Z,101558.91
2022-12-03T03:43:00.336Z,101554.94
2022-12-03T03:45:29.624Z,101551.53
2022-12-03T03:48:01.101Z,101554.31
2022-12-03T03:50:30.981Z,101561.22
2022-12-03T03:53:01.130Z,101562.34
2022-12-03T03:55:29.329Z,101566.03
2022-12-03T03:57:56.816Z,101565.06
2022-12-03T04:00:24.336Z,101564.88
2022-12-03T04:02:53.084Z,101551.00
2022-12-03T04:05:22.893Z,101550.94
2022-12-03T04:07:50.927Z,101558.56
2022-12-03T04:10:38.685Z,101551.47
2022-12-03T04:13:06.423Z,101551.34
2022-12-03T04:15:34.187Z,101557.84
2022-12-03T04:18:20.512Z,101551.59
2022-12-03T04:20:48.428Z,101549.84
2022-12-03T04:23:15.875Z,101544.59
2022-12-03T04:26:01.983Z,101551.59
2022-12-03T04:28:48.442Z,101552.88
2022-12-03T04:31:34.625Z,101554.19
2022-12-03T04:34:21.000Z,101558.06
2022-12-03T04:36:48.511Z,101551.87
2022-12-03T04:39:16.563Z,101552.63
2022-12-03T04:41:44.113Z,101554.50
2022-12-03T04:44:30.166Z,101555.16
2022-12-03T04:46:57.887Z,101558.50
2022-12-03T04:49:26.173Z,101558.91
2022-12-03T04:51:53.691Z,101558.19
2022-12-03T04:54:22.352Z,101548.75
2022-12-03T04:56:49.901Z,101552.44
2022-12-03T04:59:18.098Z,101551.97
2022-12-03T05:01:46.033Z,101552.34
2022-12-03T05:04:14.052Z,101549.19
2022-12-03T05:06:42.453Z,101556.66
2022-12-03T05:09:11.169Z,101558.84
2022-12-03T05:11:39.269Z,101550.09
2022-12-03T05:14:07.040Z,101554.81
2022-12-03T05:16:35.302Z,101551.81
2022-12-03T05:19:05.089Z,101549.72
2022-12-03T05:21:32.579Z,101554.00
2022-12-03T05:24:00.351Z,101556.75
2022-12-03T05:26:27.781Z,101571.81
2022-12-03T05:28:55.270Z,101576.69
2022-12-03T05:31:23.077Z,101569.88
2022-12-03T05:33:50.640Z,101575.91
2022-12-03T05:36:18.232Z,101580.09
2022-12-03T05:38:46.885Z,101571.19
2022-12-03T05:41:32.637Z,101577.41
2022-12-03T05:44:00.405Z,101584.38
2022-12-03T05:46:27.913Z,101571.75
2022-12-03T05:48:55.802Z,101580.91
2022-12-03T05:51:23.480Z,101584.22
2022-12-03T05:53:50.910Z,101581.41
2022-12-03T05:56:18.336Z,101583.06
2022-12-03T05:58:46.029Z,101585.34
2022-12-03T06:01:13.494Z,101585.87
2022-12-03T06:03:41.291Z,101593.25
2022-12-03T06:06:08.748Z,101587.91
2022-12-03T06:08:36.126Z,101591.88
2022-12-03T06:11:03.949Z,101593.00
2022-12-03T06:13:31.467Z,101586.63
2022-12-03T06:15:59.239Z,101591.62
2022-12-03T06:18:27.160Z,101593.09
2022-12-03T06:20:54.605Z,101591.16
2022-12-03T06:23:22.205Z,101593.00
2022-12-03T06:25:50.106Z,101593.50
2022-12-03T06:28:17.593Z,101593.13
2022-12-03T06:30:45.108Z,101598.19
2022-12-03T06:33:12.833Z,101599.22
2022-12-03T06:35:40.336Z,101593.94
2022-12-03T06:38:07.865Z,101600.84
2022-12-03T06:40:35.728Z,101603.53
2022-12-03T06:43:03.138Z,101594.50
2022-12-03T06:45:30.593Z,101591.66
2022-12-03T06:47:58.287Z,101596.09
2022-12-03T06:50:26.341Z,101591.12
2022-12-03T06:52:53.852Z,101600.19
2022-12-03T06:55:21.644Z,101608.78
2022-12-03T06:57:50.100Z,101604.22
2022-12-03T07:00:17.885Z,101600.63
2022-12-03T07:02:45.768Z,101599.91
2022-12-03T07:05:14.000Z,101602.59
2022-12-03T07:07:41.628Z,101603.84
2022-12-03T07:10:09.942Z,101608.97
2022-12-03T07:12:37.948Z,101592.50
2022-12-03T07:15:05.972Z,101610.91
2022-12-03T07:17:33.772Z,101613.59
2022-12-03T07:20:01.223Z,101612.91
2022-12-03T07:22:28.680Z,101614.81
2022-12-03T07:24:56.540Z,101610.88
2022-12-03T07:27:24.346Z,101612.91
2022-12-03T07:29:52.097Z,101602.69
2022-12-03T07:32:19.780Z,101607.31
2022-12-03T07:34:47.318Z,101615.34
2022-12-03T07:37:18.649Z,101619.87
2022-12-03T07:39:49.453Z,101620.19
2022-12-03T07:42:16.916Z,101625.28
2022-12-03T07:44:44.396Z,101618.00
2022-12-03T07:47:12.172Z,101620.41
2022-12-03T07:49:39.620Z,101617.75
2022-12-03T07:52:07.309Z,101615.03
2022-12-03T07:54:35.217Z,101618.50
2022-12-03T07:57:02.722Z,101617.53
2022-12-03T07:59:30.196Z,101622.84
2022-12-03T08:01:58.095Z,101623.66
2022-12-03T08:04:25.920Z,101614.62
2022-12-03T08:06:53.403Z,101622.06
2022-12-03T08:09:21.348Z,101617.63
2022-12-03T08:11:50.148Z,101629.13
2022-12-03T08:14:20.689Z,101630.34
2022-12-03T08:16:48.343Z,101632.25
2022-12-03T08:19:18.247Z,101628.16
2022-12-03T08:21:45.827Z,101627.53
2022-12-03T08:24:22.240Z,101614.19
2022-12-03T08:26:50.095Z,101622.78
2022-12-03T08:29:20.099Z,101616.69
2022-12-03T08:31:52.464Z,101614.34
2022-12-03T08:34:22.915Z,101612.41
2022-12-03T08:37:15.898Z,101614.38
2022-12-03T08:39:48.522Z,101622.44
2022-12-03T08:42:46.612Z,101618.81
2022-12-03T08:45:41.311Z,101618.72
2022-12-03T08:48:27.374Z,101615.50
2022-12-03T08:50:58.551Z,101618.47
2022-12-03T08:53:26.096Z,101618.72
2022-12-03T08:55:55.654Z,101617.81
2022-12-03T08:58:44.524Z,101619.38
2022-12-03T09:01:11.979Z,101620.16
2022-12-03T09:03:48.196Z,101616.28
2022-12-03T09:06:15.805Z,101615.63
2022-12-03T09:08:43.787Z,101600.50
2022-12-03T09:11:11.312Z,101604.59
2022-12-03T09:13:39.161Z,101602.69
2022-12-03T09:16:07.275Z,101604.06
2022-12-03T09:18:34.855Z,101607.47
2022-12-03T09:21:02.828Z,101601.12
2022-12-03T09:23:30.593Z,101608.97
2022-12-03T09:25:59.577Z,101611.50
2022-12-03T09:28:27.173Z,101608.66
2022-12-03T09:30:55.540Z,101612.25
2022-12-03T09:33:23.137Z,101612.87
2022-12-03T09:35:50.670Z,101607.50
2022-12-03T09:38:18.541Z,101607.91
2022-12-03T09:40:46.556Z,101599.28
2022-12-03T09:43:14.386Z,101605.12
2022-12-03T09:45:47.770Z,101601.03
2022-12-03T09:48:18.343Z,101597.97
2022-12-03T09:50:47.894Z,101587.31
2022-12-03T09:53:27.407Z,101590.63
2022-12-03T09:55:59.440Z,101585.59
2022-12-03T09:58:34.367Z,101592.91
2022-12-03T10:01:02.995Z,101588.22
2022-12-03T10:03:32.048Z,101583.06
2022-12-03T10:05:59.459Z,101577.44
2022-12-03T10:08:32.159Z,101571.53
2022-12-03T10:11:00.512Z,101575.34
2022-12-03T10:13:30.799Z,101570.84
2022-12-03T10:16:00.637Z,101558.91
2022-12-03T10:18:38.324Z,101556.91
2022-12-03T10:21:25.975Z,101571.50
2022-12-03T10:24:16.677Z,101566.53
2022-12-03T10:26:45.911Z,101569.00
2022-12-03T10:29:16.816Z,101560.44
2022-12-03T10:31:45.201Z,101559.63
2022-12-03T10:34:12.645Z,101555.28
2022-12-03T10:36:40.616Z,101554.44
2022-12-03T10:39:11.869Z,101547.53
2022-12-03T10:41:41.341Z,101542.41
2022-12-03T10:44:20.412Z,101543.91
2022-12-03T10:47:09.370Z,101539.06
2022-12-03T10:49:37.581Z,101536.88
2022-12-03T10:52:07.089Z,101539.00
2022-12-03T10:54:35.899Z,101529.66
2022-12-03T10:57:04.823Z,101535.00
2022-12-03T10:59:34.077Z,101538.69
2022-12-03T11:02:03.854Z,101529.09
2022-12-03T11:04:36.201Z,101526.06
2022-12-03T11:07:14.137Z,101521.94
2022-12-03T11:09:48.195Z,101525.09
2022-12-03T11:12:20.433Z,101515.56
2022-12-03T11:14:51.618Z,101516.03
2022-12-03T11:17:25.283Z,101508.81
2022-12-03T11:19:53.071Z,101504.84
2022-12-03T11:22:27.350Z,101504.72
2022-12-03T11:25:27.518Z,101500.25
2022-12-03T11:28:13.096Z,101491.34
2022-12-03T11:30:50.051Z,101485.97
2022-12-03T11:33:27.955Z,101493.00
2022-12-03T11:36:04.775Z,101484.31
2022-12-03T11:38:38.327Z,101488.41
2022-12-03T11:41:21.224Z,101487.63
2022-12-03T11:43:57.585Z,101492.19
2022-12-03T11:46:37.695Z,101486.56
2022-12-03T11:49:20.455Z,101490.38
2022-12-03T11:51:48.950Z,101487.31
2022-12-03T11:54:18.806Z,101484.31
2022-12-03T11:56:49.040Z,101484.31
2022-12-03T11:59:18.538Z,101490.16
2022-12-03T12:01:47.220Z,101483.19
2022-12-03T12:04:31.810Z,101480.41
2022-12-03T12:07:00.076Z,101481.75
2022-12-03T12:09:54.314Z,101470.87
2022-12-03T12:12:38.608Z,101471.00
2022-12-03T12:15:41.498Z,101473.91
2022-12-03T12:18:37.027Z,101474.53
2022-12-03T12:21:43.110Z,101474.34
2022-12-03T12:24:43.120Z,101464.13
2022-12-03T12:27:15.184Z,101466.22
2022-12-03T12:29:46.395Z,101453.31
2022-12-03T12:32:17.124Z,101467.50
2022-12-03T12:34:49.889Z,101449.78
2022-12-03T12:37:19.860Z,101457.84
2022-12-03T12:39:47.864Z,101457.66
2022-12-03T12:42:44.268Z,101447.94
2022-12-03T12:45:19.950Z,101456.25
2022-12-03T12:48:01.748Z,101451.06
2022-12-03T12:50:31.453Z,101446.53
2022-12-03T12:53:21.897Z,101432.12
2022-12-03T12:55:55.216Z,101444.59
2022-12-03T12:58:23.215Z,101440.94
2022-12-03T13:01:04.976Z,101443.75
2022-12-03T13:03:35.179Z,101443.00
2022-12-03T13:06:03.109Z,101439.63
2022-12-03T13:08:33.916Z,101435.62
2022-12-03T13:11:02.734Z,101435.53
2022-12-03T13:13:37.443Z,101440.09
2022-12-03T13:16:19.335Z,101436.66
2022-12-03T13:18:49.666Z,101437.84
2022-12-03T13:21:35.140Z,101440.37
2022-12-03T13:24:10.321Z,101425.16
2022-12-03T13:26:40.841Z,101432.06
2022-12-03T13:29:15.697Z,101430.28
2022-12-03T13:31:53.141Z,101426.91
2022-12-03T13:34:23.689Z,101426.72
2022-12-03T13:36:57.625Z,101425.66
2022-12-03T13:39:35.417Z,101424.47
2022-12-03T13:42:42.300Z,101416.06
2022-12-03T13:45:19.163Z,101416.84
2022-12-03T13:47:50.066Z,101420.84
2022-12-03T13:50:29.613Z,101420.37
2022-12-03T13:52:57.522Z,101425.59
2022-12-03T13:55:28.173Z,101420.72
2022-12-03T13:57:56.475Z,101418.50
2022-12-03T14:00:24.309Z,101410.94
2022-12-03T14:02:52.207Z,101410.44
2022-12-03T14:05:21.354Z,101413.16
2022-12-03T14:07:49.028Z,101417.19
2022-12-03T14:10:16.974Z,101418.38
2022-12-03T14:12:44.432Z,101413.97
2022-12-03T14:15:11.966Z,101418.81
2022-12-03T14:17:39.735Z,101416.19
2022-12-03T14:20:08.146Z,101417.91
2022-12-03T14:22:38.074Z,101421.53
2022-12-03T14:25:07.026Z,101423.13
2022-12-03T14:27:34.612Z,101428.69
2022-12-03T14:30:02.612Z,101428.12
2022-12-03T14:32:30.516Z,101434.09
2022-12-03T14:34:57.890Z,101438.66
2022-12-03T14:37:25.391Z,101441.38
2022-12-03T14:39:53.442Z,101446.84
2022-12-03T14:42:21.242Z,101447.28
2022-12-03T14:44:50.538Z,101436.87
2022-12-03T14:47:22.339Z,101449.09
2022-12-03T14:49:50.609Z,101448.81
2022-12-03T14:52:19.319Z,101444.28
2022-12-03T14:54:46.863Z,101452.72
2022-12-03T14:57:15.544Z,101440.87
2022-12-03T14:59:44.695Z,101451.50
2022-12-03T15:02:12.935Z,101451.81
2022-12-03T15:04:41.055Z,101456.22
2022-12-03T15:07:09.714Z,101462.53
2022-12-03T15:09:37.389Z,101454.13
2022-12-03T15:12:05.849Z,101455.53
2022-12-03T15:14:33.677Z,101455.53
2022-12-03T15:17:01.235Z,101459.94
2022-12-03T15:19:28.798Z,101468.16
2022-12-03T15:21:57.139Z,101461.00
2022-12-03T15:24:24.781Z,101465.44
2022-12-03T15:26:53.582Z,101467.31
2022-12-03T15:29:21.795Z,101470.75
2022-12-03T15:31:49.330Z,101467.31
2022-12-03T15:34:22.242Z,101464.16
2022-12-03T15:36:51.240Z,101467.78
2022-12-03T15:39:19.264Z,101471.50
2022-12-03T15:41:46.950Z,101475.91
2022-12-03T15:44:14.711Z,101475.91
2022-12-03T15:46:42.227Z,101466.75
2022-12-03T15:49:09.935Z,101469.19
2022-12-03T15:51:37.877Z,101480.44
2022-12-03T15:54:06.477Z,101476.81
2022-12-03T15:56:37.524Z,101474.72
2022-12-03T15:59:06.036Z,101478.94
2022-12-03T16:01:33.539Z,101488.22
2022-12-03T16:04:01.462Z,101486.00
2022-12-03T16:06:29.062Z,101478.78
2022-12-03T16:08:56.474Z,101486.59
2022-12-03T16:11:24.312Z,101484.06
2022-12-03T16:13:52.045Z,101484.06
2022-12-03T16:16:19.557Z,101481.59
2022-12-03T16:18:47.759Z,101476.56
2022-12-03T16:21:15.368Z,101470.44
2022-12-03T16:23:43.328Z,101471.34
2022-12-03T16:26:11.056Z,101471.28
2022-12-03T16:28:38.698Z,101476.34
2022-12-03T16:31:06.373Z,101474.28
2022-12-03T16:33:34.466Z,101467.53
2022-12-03T16:36:03.286Z,101470.44
2022-12-03T16:38:31.128Z,101471.91
2022-12-03T16:40:59.148Z,101467.56
2022-12-03T16:43:26.747Z,101463.25
2022-12-03T16:46:20.969Z,101468.00
2022-12-03T16:48:49.809Z,101465.56
2022-12-03T16:51:19.377Z,101466.34
2022-12-03T16:53:48.435Z,101464.50
2022-12-03T16:56:16.613Z,101469.25
2022-12-03T16:58:44.591Z,101461.34
2022-12-03T17:01:12.741Z,101468.09
2022-12-03T17:03:40.757Z,101470.63
2022-12-03T17:06:08.272Z,101470.63
2022-12-03T17:08:35.884Z,101461.19
2022-12-03T17:11:03.712Z,101468.41
2022-12-03T17:13:31.215Z,101464.88
2022-12-03T17:15:58.986Z,101462.12
2022-12-03T17:18:26.885Z,101460.50
2022-12-03T17:20:54.532Z,101469.16
2022-12-03T17:23:22.025Z,101462.34
2022-12-03T17:25:49.729Z,101465.09
2022-12-03T17:28:17.364Z,101462.50
2022-12-03T17:30:45.866Z,101459.03
2022-12-03T17:33:13.669Z,101461.91
2022-12-03T17:35:41.416Z,101458.28
2022-12-03T17:38:09.664Z,101458.53
2022-12-03T17:40:37.344Z,101462.94
2022-12-03T17:43:04.764Z,101459.53
2022-12-03T17:45:32.288Z,101458.06
2022-12-03T17:48:00.229Z,101457.75
2022-12-03T17:50:27.729Z,101464.66
2022-12-03T17:52:55.202Z,101466.41
2022-12-03T17:55:33.569Z,101467.25
2022-12-03T17:58:04.471Z,101463.94
2022-12-03T18:00:33.074Z,101469.84
2022-12-03T18:03:00.985Z,101468.50
2022-12-03T18:05:28.457Z,101467.41
2022-12-03T18:07:56.283Z,101463.94
2022-12-03T18:10:24.054Z,101469.16
2022-12-03T18:12:51.496Z,101468.16
2022-12-03T18:15:18.868Z,101472.47
2022-12-03T18:17:46.613Z,101466.50
2022-12-03T18:20:14.123Z,101466.19
2022-12-03T18:22:41.597Z,101467.25
2022-12-03T18:25:10.375Z,101470.00
2022-12-03T18:27:37.942Z,101477.06
2022-12-03T18:30:06.121Z,101476.78
2022-12-03T18:32:34.123Z,101477.59
2022-12-03T18:35:01.555Z,101476.75
2022-12-03T18:37:31.580Z,101473.28
2022-12-03T18:40:00.797Z,101469.84
2022-12-03T18:42:29.651Z,101470.59
2022-12-03T18:44:57.264Z,101475.81
2022-12-03T18:47:28.993Z,101460.03
2022-12-03T18:49:57.609Z,101468.63
2022-12-03T18:52:26.197Z,101462.59
2022-12-03T18:54:55.305Z,101465.09
2022-12-03T18:57:22.783Z,101468.50
2022-12-03T18:59:51.348Z,101462.41
2022-12-03T19:03:01.873Z,101467.19
2022-12-03T19:05:11.720Z,101469.41
2022-12-03T19:07:39.550Z,101466.00
2022-12-03T19:10:08.227Z,101464.94
2022-12-03T19:12:36.971Z,101465.22
2022-12-03T19:15:05.677Z,101473.13
2022-12-03T19:17:33.412Z,101470.44
2022-12-03T19:20:01.548Z,101467.53
2022-12-03T19:22:29.328Z,101457.41
2022-12-03T19:24:57.888Z,101467.78
2022-12-03T19:27:25.760Z,101468.75
2022-12-03T19:29:53.826Z,101470.53
2022-12-03T19:32:21.829Z,101474.19
2022-12-03T19:34:50.018Z,101472.50
2022-12-03T19:37:17.665Z,101473.13
2022-12-03T19:39:45.527Z,101479.31
2022-12-03T19:42:13.567Z,101474.88
2022-12-03T19:44:41.284Z,101482.06
2022-12-03T19:47:09.066Z,101471.03
2022-12-03T19:49:37.236Z,101471.72
2022-12-03T19:52:05.040Z,101471.50
2022-12-03T19:54:32.757Z,101473.97
2022-12-03T19:57:01.036Z,101477.94
2022-12-03T19:59:28.497Z,101473.44
2022-12-03T20:01:56.404Z,101482.41
2022-12-03T20:04:24.495Z,101476.09
2022-12-03T20:06:52.218Z,101477.81
2022-12-03T20:09:20.803Z,101483.31
2022-12-03T20:11:50.942Z,101479.19
2022-12-03T20:14:18.663Z,101470.50
2022-12-03T20:16:47.185Z,101473.78
2022-12-03T20:19:17.561Z,101479.53
2022-12-03T20:21:45.450Z,101475.16
2022-12-03T20:24:15.532Z,101481.37
2022-12-03T20:26:43.701Z,101466.47
2022-12-03T20:29:13.645Z,101473.50
2022-12-03T20:31:42.590Z,101472.50
2022-12-03T20:34:11.432Z,101465.03
2022-12-03T20:36:39.937Z,101463.16
2022-12-03T20:39:08.385Z,101463.75
2022-12-03T20:41:37.284Z,101459.53
2022-12-03T20:44:07.491Z,101462.25
2022-12-03T20:46:35.440Z,101458.69
2022-12-03T20:49:03.759Z,101451.19
2022-12-03T20:51:31.860Z,101469.22
2022-12-03T20:54:01.152Z,101465.75
2022-12-03T20:56:35.167Z,101471.37
2022-12-03T20:59:05.705Z,101463.09
2022-12-03T21:01:36.033Z,101470.34
2022-12-03T21:04:04.838Z,101459.94
2022-12-03T21:06:34.902Z,101463.97
2022-12-03T21:09:06.085Z,101477.06
2022-12-03T21:11:36.030Z,101476.59
2022-12-03T21:14:04.241Z,101481.31
2022-12-03T21:19:23.787Z,101481.13
2022-12-03T21:21:51.539Z,101490.94
2022-12-03T21:24:19.048Z,101493.25
2022-12-03T21:26:46.873Z,101484.69
2022-12-03T21:29:14.376Z,101494.87
2022-12-03T21:31:42.049Z,101494.72
2022-12-03T21:34:10.231Z,101486.06
2022-12-03T21:36:38.057Z,101491.13
2022-12-03T21:39:06.545Z,101492.13
2022-12-03T21:41:35.560Z,101493.25
2022-12-03T21:44:03.470Z,101492.41
2022-12-03T21:47:10.839Z,101497.16
2022-12-03T21:49:20.297Z,101499.53
2022-12-03T21:51:48.381Z,101497.09
2022-12-03T21:54:16.148Z,101493.69
2022-12-03T21:56:44.125Z,101494.63
2022-12-03T21:59:11.593Z,101501.59
2022-12-03T22:01:44.038Z,101495.53
2022-12-03T22:04:14.719Z,101507.84
2022-12-03T22:06:42.132Z,101512.50
2022-12-03T22:09:10.155Z,101500.91
2022-12-03T22:11:37.788Z,101502.56
2022-12-03T22:14:06.917Z,101494.94
2022-12-03T22:16:34.408Z,101490.97
2022-12-03T22:19:02.131Z,101483.03
2022-12-03T22:21:30.251Z,101481.06
2022-12-03T22:23:57.681Z,101480.50
2022-12-03T22:26:25.534Z,101490.75
2022-12-03T22:28:53.047Z,101487.19
2022-12-03T22:31:20.789Z,101476.72
2022-12-03T22:33:49.648Z,101485.78
2022-12-03T22:36:21.451Z,101482.91
2022-12-03T22:38:50.974Z,101472.69
2022-12-03T22:41:19.327Z,101473.31
2022-12-03T22:43:48.098Z,101485.69
2022-12-03T22:46:16.618Z,101479.22
2022-12-03T22:48:46.189Z,101474.75
2022-12-03T22:51:23.044Z,101469.59
2022-12-03T22:53:55.320Z,101467.94
2022-12-03T22:56:23.744Z,101456.25
2022-12-03T22:58:51.786Z,101474.66
2022-12-03T23:01:24.972Z,101474.66
2022-12-03T23:03:52.970Z,101462.72
2022-12-03T23:06:21.070Z,101462.91
2022-12-03T23:08:49.181Z,101460.53
2022-12-03T23:11:17.262Z,101462.59
2022-12-03T23:13:45.153Z,101464.06
2022-12-03T23:16:19.703Z,101464.88
2022-12-03T23:18:48.276Z,101461.53
2022-12-03T23:21:17.395Z,101459.75
2022-12-03T23:23:45.024Z,101458.44
2022-12-03T23:26:14.126Z,101458.91
2022-12-03T23:28:43.212Z,101460.13
2022-12-03T23:31:26.276Z,101460.00
2022-12-03T23:33:55.003Z,101449.19
2022-12-03T23:36:23.928Z,101456.81
2022-12-03T23:38:51.741Z,101451.19
2022-12-03T23:41:21.972Z,101442.59
2022-12-03T23:43:49.675Z,101446.75
2022-12-03T23:46:22.903Z,101440.50
2022-12-03T23:48:51.656Z,101438.94
2022-12-03T23:51:21.994Z,101445.50
2022-12-03T23:53:50.015Z,101446.38
2022-12-03T23:56:20.537Z,101451.88
2022-12-03T23:58:47.989Z,101447.41
